TimeAST,TemperatureF,Dew PointF,Humidity,Sea Level PressureIn,VisibilityMPH,Wind Direction,Wind SpeedMPH,Gust SpeedMPH,PrecipitationIn,Events,Conditions,WindDirDegrees,DateUTC
12:00 AM,87.8,75.2,66,29.56,-9999.0,North,4.6,-,N/A,,Clear,360,2012-09-15 21:00:00
12:30 AM,87.8,75.2,66,29.53,-9999.0,Variable,2.3,-,N/A,,Clear,0,2012-09-15 21:30:00
1:00 AM,87.8,75.2,66,29.53,-9999.0,North,3.5,-,N/A,,Clear,350,2012-09-15 22:00:00
1:30 AM,87.8,75.2,66,29.53,-9999.0,NW,3.5,-,N/A,,Clear,320,2012-09-15 22:30:00
2:00 AM,87.8,75.2,66,29.53,5.6,NW,6.9,-,N/A,,Unknown,320,2012-09-15 23:00:00
2:30 AM,86.0,75.2,70,29.53,5.6,NW,5.8,-,N/A,,Unknown,320,2012-09-15 23:30:00
3:00 AM,86.0,75.2,70,29.53,5.6,NW,6.9,-,N/A,,Unknown,310,2012-09-16 00:00:00
3:30 AM,86.0,75.2,70,29.53,5.6,WNW,6.9,-,N/A,,Unknown,300,2012-09-16 00:30:00
4:00 AM,86.0,77.0,74,29.53,5.0,WNW,4.6,-,N/A,,Unknown,290,2012-09-16 01:00:00
4:30 AM,86.0,77.0,74,29.56,5.0,West,4.6,-,N/A,,Unknown,270,2012-09-16 01:30:00
5:00 AM,84.2,77.0,79,29.56,5.0,Variable,2.3,-,N/A,,Unknown,0,2012-09-16 02:00:00
5:30 AM,84.2,75.2,74,29.56,5.0,NNW,3.5,-,N/A,,Unknown,340,2012-09-16 02:30:00
6:00 AM,84.2,77.0,79,29.59,5.6,NNW,3.5,-,N/A,,Unknown,330,2012-09-16 03:00:00
6:30 AM,86.0,77.0,74,29.59,5.0,NW,3.5,-,N/A,,Unknown,310,2012-09-16 03:30:00
7:00 AM,86.0,77.0,74,29.62,5.0,NW,3.5,-,N/A,,Partly Cloudy,320,2012-09-16 04:00:00
7:30 AM,87.8,77.0,70,29.62,6.2,North,5.8,-,N/A,,Partly Cloudy,350,2012-09-16 04:30:00
8:00 AM,87.8,77.0,70,29.62,6.2,NNW,6.9,-,N/A,,Partly Cloudy,340,2012-09-16 05:00:00
8:30 AM,89.6,77.0,66,29.62,6.2,North,6.9,-,N/A,,Partly Cloudy,10,2012-09-16 05:30:00
9:00 AM,90,77,57,29.64,6,North,4.6,,,,Clear,0,2012-09-16 06:00:00
9:00 AM,89.6,77.0,66,29.62,-9999.0,North,4.6,-,N/A,,Clear,360,2012-09-16 06:00:00
9:30 AM,91.4,75.2,59,29.62,-9999.0,NNE,8.1,-,N/A,,Clear,20,2012-09-16 06:30:00
10:00 AM,95.0,71.6,47,29.62,-9999.0,NNW,10.4,-,N/A,,Clear,340,2012-09-16 07:00:00
10:30 AM,95.0,69.8,44,29.62,-9999.0,North,10.4,-,N/A,,Clear,350,2012-09-16 07:30:00
11:00 AM,95.0,71.6,47,29.62,-9999.0,North,10.4,-,N/A,,Clear,10,2012-09-16 08:00:00
11:30 AM,95.0,71.6,47,29.59,-9999.0,NNE,8.1,-,N/A,,Clear,30,2012-09-16 08:30:00
12:00 PM,95.0,71.6,47,29.59,-9999.0,North,10.4,-,N/A,,Clear,10,2012-09-16 09:00:00
12:30 PM,95.0,75.2,53,29.59,-9999.0,North,10.4,-,N/A,,Clear,10,2012-09-16 09:30:00
1:00 PM,95.0,77.0,56,29.56,-9999.0,NNE,9.2,-,N/A,,Clear,20,2012-09-16 10:00:00
1:30 PM,95.0,78.8,59,29.56,-9999.0,North,11.5,-,N/A,,Clear,10,2012-09-16 10:30:00
2:00 PM,95.0,77.0,56,29.56,-9999.0,North,10.4,-,N/A,,Clear,360,2012-09-16 11:00:00
2:30 PM,95.0,77.0,56,29.56,-9999.0,North,12.7,-,N/A,,Clear,10,2012-09-16 11:30:00
3:00 PM,94,78,51,29.58,6,North,11.5,,,,,10,2012-09-16 12:00:00
3:30 PM,95.0,77.0,56,29.56,-9999.0,North,10.4,-,N/A,,Clear,10,2012-09-16 12:30:00
4:00 PM,93.2,78.8,63,29.56,-9999.0,North,12.7,-,N/A,,Clear,10,2012-09-16 13:00:00
4:30 PM,93.2,78.8,63,29.56,-9999.0,North,15.0,-,N/A,,Clear,10,2012-09-16 13:30:00
5:00 PM,91.4,78.8,66,29.59,-9999.0,NNE,12.7,-,N/A,,Clear,20,2012-09-16 14:00:00
5:30 PM,91.4,78.8,66,29.59,5.0,North,11.5,-,N/A,,Unknown,10,2012-09-16 14:30:00
6:00 PM,91.4,78.8,66,29.59,4.3,North,11.5,-,N/A,,Unknown,10,2012-09-16 15:00:00
6:30 PM,91.4,78.8,66,29.59,4.3,North,10.4,-,N/A,,Unknown,10,2012-09-16 15:30:00
7:00 PM,91.4,77.0,63,29.62,5.0,North,11.5,-,N/A,,Unknown,10,2012-09-16 16:00:00
7:30 PM,91.4,78.8,66,29.62,5.0,North,10.4,-,N/A,,Unknown,10,2012-09-16 16:30:00
8:00 PM,91.4,78.8,66,29.62,5.0,North,9.2,-,N/A,,Unknown,10,2012-09-16 17:00:00
8:30 PM,91.4,78.8,66,29.65,5.0,North,8.1,-,N/A,,Unknown,360,2012-09-16 17:30:00
9:00 PM,90,80,65,29.66,5,North,9.2,,,,Haze,0,2012-09-16 18:00:00
9:00 PM,91.4,80.6,71,29.65,5.0,North,9.2,-,N/A,,Unknown,360,2012-09-16 18:00:00
9:30 PM,91.4,80.6,71,29.65,5.0,North,9.2,-,N/A,,Unknown,360,2012-09-16 18:30:00
10:00 PM,89.6,78.8,70,29.65,5.6,NNW,8.1,-,N/A,,Unknown,340,2012-09-16 19:00:00
10:30 PM,89.6,80.6,75,29.62,5.6,NNW,9.2,-,N/A,,Unknown,340,2012-09-16 19:30:00
11:30 PM,87.8,80.6,79,29.62,5.0,NNW,11.5,-,N/A,,Unknown,340,2012-09-16 20:30:00